Brittons Neck, South Carolina
Current Conditions -  °F | °C
As of 8:35 PM on Saturday 22 Nov 2014 (Local Time) from KHYW Reporting Station
Haze Haze  
Wind Chill: 41°   Ceiling: Unl
Heat Index: 41°   Visibility: 5mi
Dew Point: 41°   Wind: 0mph
Humidity: 100%   Direction: NA
Pressure: 30.36"   Gusts: NA
Location:  33.8591°N, 79.3256°W
Report Text: KHYW 230135Z AUTO 00000KT 5SM BR CLR 05/05 A3036 RMK AO2
Loading
Personal Weather Stations






























Interactive Weather Map New forecast layout! Learn more

10-Day Weather Forecast

Advertisements
Track Severe Weather on mobile